Time;durP1;ratioP1;P1;durP2;ratioP2;P2;SDS_P1;SDS_P2;PMS_P1;PMS_P2;Temp;Humidity;BMP_temperature;BMP_pressure;BME280_temperature;BME280_humidity;BME280_pressure;Samples;Min_cycle;Max_cycle;Signal;HPM_P1;HPM_P2
2022/09/26 00:02:21;;;;;;;1.50;1.40;;;;;9.60;95529.00;;;;5114410;28;20186;-65
2022/09/26 00:04:49;;;;;;;0.63;0.63;;;;;9.50;95516.00;;;;5096490;28;20206;-64
2022/09/26 00:07:18;;;;;;;0.80;0.80;;;;;9.60;95526.00;;;;5114464;28;20805;-64
2022/09/26 00:09:44;;;;;;;1.87;1.73;;;;;9.60;95522.00;;;;5114394;28;20259;-64
2022/09/26 00:12:11;;;;;;;1.17;1.17;;;;;9.50;95532.00;;;;5114313;28;20657;-64
2022/09/26 00:14:40;;;;;;;0.50;0.50;;;;;9.40;95531.00;;;;5114097;28;20214;-63
2022/09/26 00:17:07;;;;;;;0.97;0.97;;;;;9.40;95526.00;;;;5114173;28;20540;-63
2022/09/26 00:19:35;;;;;;;0.80;0.80;;;;;9.30;95525.00;;;;5096046;28;20225;-64
2022/09/26 00:22:01;;;;;;;0.90;0.90;;;;;9.30;95516.00;;;;5114054;28;20510;-63
2022/09/26 00:24:29;;;;;;;0.73;0.73;;;;;9.30;95507.00;;;;5114139;28;20575;-64
2022/09/26 00:26:59;;;;;;;0.87;0.87;;;;;9.40;95501.00;;;;5095965;28;20222;-63
2022/09/26 00:29:25;;;;;;;0.87;0.87;;;;;9.30;95500.00;;;;5113941;28;20186;-64
2022/09/26 00:31:52;;;;;;;1.10;1.10;;;;;9.30;95503.00;;;;5094609;28;20221;-64
2022/09/26 00:34:21;;;;;;;1.03;1.03;;;;;9.30;95511.00;;;;5113882;28;20190;-64
2022/09/26 00:36:48;;;;;;;0.77;0.77;;;;;9.20;95510.00;;;;5113820;28;20309;-64
2022/09/26 00:39:16;;;;;;;0.60;0.60;;;;;9.10;95501.00;;;;5095850;28;20656;-64
2022/09/26 00:41:43;;;;;;;1.13;1.13;;;;;9.10;95502.00;;;;5095688;28;20689;-63
2022/09/26 00:44:43;;;;;;;1.03;1.00;;;;;9.10;95504.00;;;;5095801;28;20187;-63
2022/09/26 00:47:37;;;;;;;0.87;0.87;;;;;9.10;95497.00;;;;5113571;28;20247;-63
2022/09/26 00:50:12;;;;;;;1.17;1.07;;;;;9.20;95492.00;;;;5091214;28;20228;-64
2022/09/26 00:52:44;;;;;;;0.80;0.80;;;;;9.20;95499.00;;;;5113401;28;20523;-64
2022/09/26 00:55:14;;;;;;;0.60;0.60;;;;;9.30;95490.00;;;;5113470;28;20205;-64
2022/09/26 00:57:45;;;;;;;0.73;0.73;;;;;9.20;95485.00;;;;5113714;28;20186;-64
2022/09/26 01:00:14;;;;;;;0.60;0.60;;;;;9.20;95497.00;;;;5113608;28;20194;-64
2022/09/26 01:02:45;;;;;;;1.50;1.40;;;;;9.10;95491.00;;;;5113460;28;20232;-64
2022/09/26 01:05:17;;;;;;;1.00;1.00;;;;;9.10;95479.00;;;;5113438;28;20246;-64
2022/09/26 01:07:45;;;;;;;1.47;1.37;;;;;9.10;95484.00;;;;5113405;28;20201;-64
2022/09/26 01:10:14;;;;;;;1.10;1.10;;;;;9.10;95476.00;;;;5113338;28;20228;-65
2022/09/26 01:12:43;;;;;;;1.00;1.00;;;;;9.10;95475.00;;;;5113289;28;20217;-65
2022/09/26 01:15:11;;;;;;;1.53;1.43;;;;;9.10;95462.00;;;;5113355;28;20190;-65
2022/09/26 01:17:40;;;;;;;0.70;0.70;;;;;9.10;95469.00;;;;5113274;28;20721;-64
2022/09/26 01:20:20;;;;;;;0.93;0.93;;;;;9.10;95470.00;;;;5113182;28;20550;-63
2022/09/26 01:23:19;;;;;;;0.83;0.83;;;;;9.10;95471.00;;;;5113266;28;20209;-64
2022/09/26 01:26:11;;;;;;;1.30;1.20;;;;;9.10;95483.00;;;;5113304;28;20246;-64
2022/09/26 01:28:57;;;;;;;0.80;0.80;;;;;9.10;95480.00;;;;5095010;28;20213;-64
2022/09/26 01:31:36;;;;;;;0.87;0.87;;;;;9.10;95479.00;;;;5112996;28;20170;-64
2022/09/26 01:34:10;;;;;;;0.70;0.70;;;;;9.10;95471.00;;;;5113099;28;20201;-64
2022/09/26 01:37:02;;;;;;;0.50;0.50;;;;;9.10;95479.00;;;;5094977;28;20583;-64
2022/09/26 01:39:51;;;;;;;0.90;0.90;;;;;9.10;95478.00;;;;5095012;28;20217;-64
2022/09/26 01:42:31;;;;;;;1.00;1.00;;;;;9.00;95486.00;;;;5113629;28;20190;-64
2022/09/26 01:45:04;;;;;;;0.83;0.83;;;;;9.00;95489.00;;;;5116737;28;20547;-64
2022/09/26 01:47:41;;;;;;;2.07;1.97;;;;;9.00;95482.00;;;;5116469;28;20216;-64
2022/09/26 01:50:16;;;;;;;1.60;1.33;;;;;9.10;95482.00;;;;5116505;28;20552;-64
2022/09/26 01:52:50;;;;;;;0.83;0.80;;;;;9.10;95487.00;;;;5116366;28;20212;-64
2022/09/26 01:55:22;;;;;;;1.40;1.30;;;;;9.10;95480.00;;;;5116418;28;20225;-64
2022/09/26 01:57:54;;;;;;;0.80;0.80;;;;;9.10;95472.00;;;;5116435;28;20224;-64
2022/09/26 02:00:21;;;;;;;1.00;1.00;;;;;9.10;95478.00;;;;5116263;28;20214;-66
2022/09/26 02:02:50;;;;;;;0.80;0.80;;;;;8.90;95475.00;;;;5116331;28;20270;-65
2022/09/26 02:05:24;;;;;;;0.70;0.70;;;;;9.00;95471.00;;;;5116188;28;20187;-64
2022/09/26 02:07:57;;;;;;;0.70;0.70;;;;;8.90;95471.00;;;;5116307;28;20194;-64
2022/09/26 02:10:27;;;;;;;1.03;1.03;;;;;9.00;95463.00;;;;5116262;28;20202;-64
2022/09/26 02:13:02;;;;;;;1.70;1.50;;;;;9.00;95465.00;;;;5116325;28;20225;-67
2022/09/26 02:15:34;;;;;;;1.57;1.47;;;;;9.00;95454.00;;;;5116117;28;20494;-60
2022/09/26 02:18:10;;;;;;;0.50;0.50;;;;;9.00;95462.00;;;;5116023;28;20218;-64
2022/09/26 02:20:40;;;;;;;1.33;1.23;;;;;8.90;95459.00;;;;5116015;28;20201;-64
2022/09/26 02:23:07;;;;;;;0.97;0.97;;;;;9.00;95414.00;;;;5115771;28;20234;-62
2022/09/26 02:25:36;;;;;;;0.60;0.60;;;;;9.00;95448.00;;;;5115824;28;20218;-64
2022/09/26 02:28:03;;;;;;;2.20;1.57;;;;;9.00;95431.00;;;;5115655;28;20225;-63
2022/09/26 02:30:31;;;;;;;0.97;0.97;;;;;9.00;95435.00;;;;5115825;28;20653;-64
2022/09/26 02:32:57;;;;;;;0.83;0.83;;;;;9.10;95442.00;;;;5115711;28;20226;-64
2022/09/26 02:38:11;;;;;;;0.80;0.80;;;;;9.10;95446.00;;;;5115744;28;20202;-62
2022/09/26 02:40:50;;;;;;;0.97;0.97;;;;;9.10;95446.00;;;;5115592;28;20308;-64
2022/09/26 02:43:43;;;;;;;0.90;0.90;;;;;9.00;95453.00;;;;5115757;28;20202;-64
2022/09/26 02:46:25;;;;;;;0.60;0.60;;;;;9.00;95445.00;;;;5110807;28;20264;-63
2022/09/26 02:49:08;;;;;;;0.57;0.57;;;;;9.00;95452.00;;;;5115668;28;20206;-64
2022/09/26 02:51:55;;;;;;;0.60;0.60;;;;;9.00;95444.00;;;;5115438;28;20233;-63
2022/09/26 02:54:28;;;;;;;0.83;0.83;;;;;9.00;95432.00;;;;5114566;28;20228;-64
2022/09/26 02:57:10;;;;;;;1.10;1.10;;;;;9.10;95429.00;;;;5115436;28;20213;-64
2022/09/26 02:59:46;;;;;;;0.80;0.80;;;;;9.10;95425.00;;;;5115545;28;20216;-64
2022/09/26 03:02:16;;;;;;;1.27;1.20;;;;;9.00;95418.00;;;;5115480;28;20222;-64
2022/09/26 03:04:49;;;;;;;1.37;0.93;;;;;9.00;95406.00;;;;5115530;28;20648;-64
2022/09/26 03:07:24;;;;;;;0.73;0.73;;;;;9.00;95409.00;;;;5115411;28;20226;-64
2022/09/26 03:09:52;;;;;;;0.70;0.70;;;;;8.90;95405.00;;;;5115443;28;20185;-64
2022/09/26 03:12:19;;;;;;;0.73;0.73;;;;;9.00;95407.00;;;;5115265;28;20755;-63
2022/09/26 03:14:48;;;;;;;0.60;0.60;;;;;9.00;95402.00;;;;5115294;28;20248;-64
2022/09/26 03:17:17;;;;;;;0.80;0.80;;;;;9.10;95400.00;;;;5115223;28;20247;-64
2022/09/26 03:19:48;;;;;;;0.70;0.70;;;;;9.00;95395.00;;;;5115258;28;20201;-64
2022/09/26 03:22:16;;;;;;;1.10;1.10;;;;;9.00;95394.00;;;;5115230;28;20214;-64
2022/09/26 03:24:43;;;;;;;0.77;0.77;;;;;8.90;95389.00;;;;5115019;28;20680;-63
2022/09/26 03:27:13;;;;;;;0.90;0.90;;;;;9.00;95396.00;;;;5096867;28;20194;-63
2022/09/26 03:29:40;;;;;;;0.60;0.60;;;;;8.90;95388.00;;;;5114809;28;20217;-64
2022/09/26 03:32:07;;;;;;;0.70;0.70;;;;;8.90;95400.00;;;;5114920;28;20267;-64
2022/09/26 03:34:38;;;;;;;0.87;0.80;;;;;8.90;95401.00;;;;5115032;28;20202;-64
2022/09/26 03:37:06;;;;;;;1.00;1.00;;;;;8.90;95399.00;;;;5097014;28;20194;-64
2022/09/26 03:39:35;;;;;;;0.57;0.57;;;;;8.90;95397.00;;;;5114831;28;20221;-64
2022/09/26 03:42:02;;;;;;;0.70;0.70;;;;;9.00;95390.00;;;;5114600;28;20213;-64
2022/09/26 03:44:29;;;;;;;0.80;0.80;;;;;8.90;95387.00;;;;5096852;28;20258;-64
2022/09/26 03:46:57;;;;;;;0.60;0.60;;;;;9.00;95384.00;;;;5096713;28;20282;-65
2022/09/26 03:49:24;;;;;;;0.63;0.63;;;;;9.00;95368.00;;;;5114798;28;20666;-64
2022/09/26 03:51:51;;;;;;;1.00;1.00;;;;;8.90;95365.00;;;;5114496;28;20232;-64
2022/09/26 03:54:20;;;;;;;0.80;0.80;;;;;8.90;95368.00;;;;5114749;28;20194;-64
2022/09/26 03:56:47;;;;;;;0.50;0.50;;;;;8.90;95368.00;;;;5114500;28;20226;-64
2022/09/26 03:59:14;;;;;;;0.67;0.67;;;;;9.00;95364.00;;;;5114525;28;20206;-64
2022/09/26 04:01:42;;;;;;;1.00;1.00;;;;;8.90;95362.00;;;;5114358;28;20602;-64
2022/09/26 04:04:08;;;;;;;0.90;0.90;;;;;8.90;95359.00;;;;5114458;28;20293;-64
2022/09/26 04:06:36;;;;;;;1.10;1.10;;;;;8.80;95357.00;;;;5113955;28;20218;-64
2022/09/26 04:09:04;;;;;;;0.90;0.90;;;;;8.80;95352.00;;;;5114269;28;20265;-63
2022/09/26 04:11:30;;;;;;;1.00;1.00;;;;;8.80;95350.00;;;;5114105;28;20221;-64
2022/09/26 04:13:58;;;;;;;0.93;0.93;;;;;8.70;95341.00;;;;5114329;28;20194;-62
2022/09/26 04:16:25;;;;;;;2.10;1.33;;;;;8.70;95331.00;;;;5114088;28;20677;-63
2022/09/26 04:18:55;;;;;;;0.83;0.83;;;;;8.70;95317.00;;;;5114193;28;20198;-62
2022/09/26 04:21:22;;;;;;;1.20;1.20;;;;;8.60;95324.00;;;;5114043;28;20218;-63
2022/09/26 04:23:49;;;;;;;0.80;0.80;;;;;8.60;95317.00;;;;5114070;28;20212;-63
2022/09/26 04:26:18;;;;;;;0.90;0.90;;;;;8.60;95316.00;;;;5114284;28;20594;-62
2022/09/26 04:28:51;;;;;;;0.70;0.70;;;;;8.60;95310.00;;;;5113983;28;20577;-64
2022/09/26 04:31:20;;;;;;;1.17;1.17;;;;;8.60;95313.00;;;;5113900;28;20242;-64
2022/09/26 04:33:47;;;;;;;0.97;0.97;;;;;8.60;95322.00;;;;5095917;28;20305;-64
2022/09/26 04:36:14;;;;;;;0.77;0.77;;;;;8.50;95319.00;;;;5114167;28;20239;-63
2022/09/26 04:38:41;;;;;;;1.07;1.07;;;;;8.60;95318.00;;;;5113892;28;20197;-64
2022/09/26 04:41:12;;;;;;;0.90;0.90;;;;;8.40;95315.00;;;;5113731;28;20276;-64
2022/09/26 04:43:41;;;;;;;0.90;0.90;;;;;8.40;95319.00;;;;5113778;28;20189;-64
2022/09/26 04:46:10;;;;;;;0.60;0.60;;;;;8.40;95317.00;;;;5095838;28;20210;-63
2022/09/26 04:48:37;;;;;;;0.90;0.90;;;;;8.40;95311.00;;;;5113753;28;20597;-64
2022/09/26 04:51:06;;;;;;;1.13;1.13;;;;;8.40;95304.00;;;;5113697;28;20190;-64
2022/09/26 04:53:33;;;;;;;0.77;0.77;;;;;8.40;95307.00;;;;5113599;28;20286;-64
2022/09/26 04:56:02;;;;;;;0.90;0.90;;;;;8.40;95301.00;;;;5113765;28;20197;-64
2022/09/26 04:58:32;;;;;;;0.70;0.70;;;;;8.50;95302.00;;;;5095779;28;20190;-64
2022/09/26 05:01:02;;;;;;;0.67;0.67;;;;;8.50;95298.00;;;;5113708;28;20228;-64
2022/09/26 05:03:29;;;;;;;0.60;0.60;;;;;8.40;95304.00;;;;5113598;28;20220;-64
2022/09/26 05:05:57;;;;;;;0.60;0.60;;;;;8.20;95309.00;;;;5113572;28;20495;-64
2022/09/26 05:08:25;;;;;;;0.70;0.70;;;;;8.30;95311.00;;;;5113476;28;20194;-64
2022/09/26 05:10:54;;;;;;;0.53;0.53;;;;;8.10;95303.00;;;;5095576;28;20225;-64
2022/09/26 05:13:21;;;;;;;0.60;0.60;;;;;8.10;95298.00;;;;5113330;28;20236;-63
2022/09/26 05:15:52;;;;;;;0.87;0.87;;;;;8.20;95297.00;;;;5113377;28;20205;-64
2022/09/26 05:18:20;;;;;;;0.60;0.60;;;;;8.20;95304.00;;;;5097511;28;20245;-64
2022/09/26 05:20:48;;;;;;;0.80;0.80;;;;;8.20;95306.00;;;;5117078;28;20731;-64
2022/09/26 05:26:19;;;;;;;0.90;0.90;;;;;8.10;95284.00;;;;5116291;28;20198;-64
2022/09/26 05:28:50;;;;;;;1.03;1.03;;;;;8.10;95293.00;;;;5116985;28;20209;-64
2022/09/26 05:31:17;;;;;;;1.00;1.00;;;;;8.10;95290.00;;;;5116857;28;20641;-64
2022/09/26 05:33:45;;;;;;;0.80;0.80;;;;;8.10;95290.00;;;;5116711;28;20232;-64
2022/09/26 05:36:12;;;;;;;0.73;0.73;;;;;8.30;95294.00;;;;5116909;28;20213;-64
2022/09/26 05:38:40;;;;;;;0.80;0.80;;;;;8.20;95286.00;;;;5116920;28;20205;-64
2022/09/26 05:41:08;;;;;;;0.50;0.50;;;;;8.10;95278.00;;;;5116717;28;20266;-64
2022/09/26 05:43:35;;;;;;;0.70;0.70;;;;;8.10;95278.00;;;;5116754;28;20201;-64
2022/09/26 05:46:04;;;;;;;1.43;1.33;;;;;8.20;95276.00;;;;5116678;28;20270;-63
2022/09/26 05:48:31;;;;;;;0.90;0.90;;;;;8.30;95270.00;;;;5116687;28;20214;-64
2022/09/26 05:51:03;;;;;;;0.93;0.93;;;;;8.30;95272.00;;;;5116553;28;20196;-64
2022/09/26 05:53:30;;;;;;;0.70;0.70;;;;;8.40;95274.00;;;;5116543;28;20237;-63
2022/09/26 05:56:00;;;;;;;0.87;0.87;;;;;8.50;95276.00;;;;5116332;28;20656;-64
2022/09/26 05:58:31;;;;;;;0.57;0.57;;;;;8.50;95279.00;;;;5116391;28;20225;-64
2022/09/26 06:01:03;;;;;;;1.23;1.23;;;;;8.60;95276.00;;;;5098558;28;20218;-64
2022/09/26 06:03:33;;;;;;;0.63;0.63;;;;;8.60;95270.00;;;;5116476;28;20279;-64
2022/09/26 06:06:05;;;;;;;0.50;0.50;;;;;8.70;95273.00;;;;5116521;28;20197;-63
2022/09/26 06:08:33;;;;;;;0.73;0.73;;;;;8.70;95277.00;;;;5116436;28;20512;-64
2022/09/26 06:11:02;;;;;;;0.80;0.80;;;;;8.70;95276.00;;;;5116501;28;20202;-65
2022/09/26 06:13:29;;;;;;;0.90;0.90;;;;;8.80;95276.00;;;;5116425;28;20233;-64
2022/09/26 06:15:59;;;;;;;0.70;0.70;;;;;8.80;95280.00;;;;5116362;28;20191;-65
2022/09/26 06:18:26;;;;;;;0.70;0.70;;;;;8.80;95277.00;;;;5116107;28;20274;-65
2022/09/26 06:20:55;;;;;;;0.80;0.80;;;;;8.90;95273.00;;;;5116261;28;20237;-64
2022/09/26 06:23:22;;;;;;;0.73;0.73;;;;;8.80;95269.00;;;;5116018;28;20225;-64
2022/09/26 06:25:49;;;;;;;0.80;0.80;;;;;8.80;95264.00;;;;5098058;28;20650;-63
2022/09/26 06:28:19;;;;;;;0.57;0.57;;;;;8.90;95271.00;;;;5115947;28;20237;-65
2022/09/26 06:30:45;;;;;;;0.60;0.60;;;;;9.00;95263.00;;;;5116045;28;20182;-65
2022/09/26 06:33:12;;;;;;;0.80;0.80;;;;;9.10;95270.00;;;;5115747;28;20729;-65
2022/09/26 06:35:41;;;;;;;0.60;0.60;;;;;9.10;95276.00;;;;5116098;28;20198;-58
2022/09/26 06:38:08;;;;;;;2.87;1.20;;;;;9.20;95267.00;;;;5115972;28;20334;-59
2022/09/26 06:40:35;;;;;;;0.50;0.50;;;;;9.30;95267.00;;;;5115815;28;20207;-60
2022/09/26 06:43:02;;;;;;;0.80;0.80;;;;;9.30;95262.00;;;;5115849;28;20263;-61
2022/09/26 06:45:30;;;;;;;0.77;0.77;;;;;9.10;95258.00;;;;5115506;28;20236;-58
2022/09/26 06:48:00;;;;;;;0.53;0.53;;;;;9.00;95258.00;;;;5115524;28;20209;-61
2022/09/26 06:50:27;;;;;;;0.97;0.97;;;;;8.80;95264.00;;;;5115473;28;20536;-61
2022/09/26 06:52:54;;;;;;;0.60;0.60;;;;;8.90;95253.00;;;;5115493;28;20229;-63
2022/09/26 06:55:21;;;;;;;0.63;0.63;;;;;8.90;95244.00;;;;5115253;28;20200;-61
2022/09/26 06:57:48;;;;;;;0.73;0.70;;;;;9.00;95252.00;;;;5115403;28;20204;-62
2022/09/26 07:00:15;;;;;;;0.70;0.70;;;;;9.10;95250.00;;;;5115366;28;20514;-64
2022/09/26 07:02:51;;;;;;;1.50;1.33;;;;;9.20;95246.00;;;;5097564;28;20324;-62
2022/09/26 07:05:21;;;;;;;0.67;0.67;;;;;9.10;95240.00;;;;5115367;28;20189;-62
2022/09/26 07:07:48;;;;;;;0.60;0.60;;;;;9.40;95240.00;;;;5115297;28;20217;-64
2022/09/26 07:10:17;;;;;;;0.80;0.80;;;;;9.30;95234.00;;;;5115692;28;20345;-62
2022/09/26 07:12:46;;;;;;;0.70;0.70;;;;;9.50;95227.00;;;;5115182;28;20222;-64
2022/09/26 07:15:14;;;;;;;0.60;0.60;;;;;9.70;95224.00;;;;5115236;28;20205;-62
2022/09/26 07:17:42;;;;;;;1.30;1.30;;;;;9.90;95224.00;;;;5115167;28;20190;-62
2022/09/26 07:20:10;;;;;;;1.47;1.43;;;;;10.00;95223.00;;;;5114868;28;20218;-64
2022/09/26 07:22:37;;;;;;;1.27;1.23;;;;;10.10;95221.00;;;;5097191;28;20562;-62
2022/09/26 07:25:05;;;;;;;0.70;0.70;;;;;10.20;95223.00;;;;5115122;28;20232;-62
2022/09/26 07:27:32;;;;;;;0.90;0.90;;;;;10.00;95221.00;;;;5115016;28;20673;-62
2022/09/26 07:29:59;;;;;;;0.50;0.50;;;;;9.90;95210.00;;;;5115011;28;20206;-61
2022/09/26 07:32:26;;;;;;;1.13;1.03;;;;;10.10;95216.00;;;;5096884;28;20214;-62
2022/09/26 07:34:53;;;;;;;0.97;0.97;;;;;10.40;95210.00;;;;5096870;28;20537;-64
2022/09/26 07:37:22;;;;;;;0.70;0.70;;;;;10.20;95210.00;;;;5114784;28;20217;-62
2022/09/26 07:39:49;;;;;;;1.30;1.30;;;;;10.00;95221.00;;;;5114325;28;20194;-62
2022/09/26 07:42:17;;;;;;;0.67;0.67;;;;;9.90;95224.00;;;;5114576;28;20226;-62
2022/09/26 07:44:44;;;;;;;1.27;1.27;;;;;9.90;95222.00;;;;5114540;28;20510;-61
2022/09/26 07:50:11;;;;;;;1.00;1.00;;;;;10.10;95217.00;;;;5096470;28;20602;-64
2022/09/26 07:52:39;;;;;;;0.83;0.83;;;;;9.90;95215.00;;;;5114237;28;20218;-60
2022/09/26 07:55:07;;;;;;;0.67;0.67;;;;;9.90;95213.00;;;;5114256;28;20222;-62
2022/09/26 07:57:34;;;;;;;1.00;1.00;;;;;10.10;95207.00;;;;5114283;28;20225;-62
2022/09/26 08:00:01;;;;;;;1.00;1.00;;;;;10.10;95221.00;;;;5114193;28;20555;-62
2022/09/26 08:02:32;;;;;;;0.60;0.60;;;;;10.20;95213.00;;;;5114297;28;20219;-62
2022/09/26 08:05:02;;;;;;;1.00;1.00;;;;;10.30;95210.00;;;;5114100;28;20297;-64
2022/09/26 08:07:29;;;;;;;2.47;1.77;;;;;10.10;95204.00;;;;5114148;28;20592;-62
2022/09/26 08:09:57;;;;;;;1.07;1.07;;;;;10.20;95202.00;;;;5114093;28;20182;-62
2022/09/26 08:12:25;;;;;;;0.60;0.60;;;;;10.20;95206.00;;;;5113986;28;20290;-61
2022/09/26 08:14:52;;;;;;;0.83;0.83;;;;;10.20;95192.00;;;;5113952;28;20198;-62
2022/09/26 08:17:20;;;;;;;0.80;0.80;;;;;10.30;95190.00;;;;5096080;28;20299;-62
2022/09/26 08:19:46;;;;;;;1.47;1.37;;;;;10.40;95158.00;;;;5113900;28;20198;-62
2022/09/26 08:22:13;;;;;;;0.93;0.87;;;;;10.40;95197.00;;;;5113891;28;20657;-62
2022/09/26 08:24:40;;;;;;;0.77;0.77;;;;;10.60;95193.00;;;;5113890;28;20194;-62
2022/09/26 08:27:08;;;;;;;1.03;1.03;;;;;10.60;95191.00;;;;5113805;28;20281;-62
2022/09/26 08:29:35;;;;;;;0.63;0.63;;;;;10.90;95192.00;;;;5095793;28;20359;-62
2022/09/26 08:32:02;;;;;;;1.50;1.40;;;;;11.00;95190.00;;;;5113668;28;20189;-64
2022/09/26 08:34:31;;;;;;;0.80;0.80;;;;;11.30;95190.00;;;;5113629;28;20236;-62
2022/09/26 08:36:57;;;;;;;0.90;0.90;;;;;11.20;95191.00;;;;5113725;28;20641;-62
2022/09/26 08:39:24;;;;;;;0.67;0.67;;;;;11.30;95181.00;;;;5113534;28;20233;-62
2022/09/26 08:42:04;;;;;;;0.83;0.83;;;;;11.40;95182.00;;;;5113700;28;20715;-62
2022/09/26 08:44:47;;;;;;;1.10;1.07;;;;;11.60;95184.00;;;;5113569;28;20568;-62
2022/09/26 08:47:29;;;;;;;0.73;0.73;;;;;11.50;95170.00;;;;5113532;28;20552;-60
2022/09/26 08:50:04;;;;;;;3.73;1.37;;;;;11.80;95171.00;;;;5113835;28;20255;-62
2022/09/26 08:52:36;;;;;;;0.90;0.90;;;;;11.90;95167.00;;;;5112400;28;20221;-62
2022/09/26 08:55:10;;;;;;;0.90;0.90;;;;;12.10;95167.00;;;;5113661;28;20193;-62
2022/09/26 08:57:41;;;;;;;0.73;0.73;;;;;11.90;95168.00;;;;5113599;28;20205;-62
2022/09/26 09:00:18;;;;;;;0.80;0.80;;;;;12.00;95170.00;;;;5113508;28;20277;-62
2022/09/26 09:02:50;;;;;;;0.70;0.70;;;;;12.20;95184.00;;;;5095443;28;20564;-62
2022/09/26 09:05:21;;;;;;;0.80;0.80;;;;;12.50;95166.00;;;;5113484;28;20210;-62
2022/09/26 09:07:49;;;;;;;1.03;1.03;;;;;12.30;95174.00;;;;5113380;28;20334;-59
2022/09/26 09:10:18;;;;;;;1.23;1.23;;;;;12.20;95166.00;;;;5113465;28;20200;-62
2022/09/26 09:12:57;;;;;;;1.03;0.87;;;;;12.70;95124.00;;;;5113207;28;20214;-62
2022/09/26 09:15:36;;;;;;;0.70;0.70;;;;;12.90;95166.00;;;;5113315;28;20248;-62
2022/09/26 09:18:14;;;;;;;0.70;0.70;;;;;13.40;95150.00;;;;5113324;28;20237;-62
2022/09/26 09:20:54;;;;;;;0.70;0.70;;;;;12.90;95157.00;;;;5113177;28;20213;-62
2022/09/26 09:23:37;;;;;;;1.10;1.00;;;;;13.10;95154.00;;;;5113200;28;20217;-62
2022/09/26 09:26:13;;;;;;;0.87;0.70;;;;;12.90;95151.00;;;;5113121;28;20285;-61
2022/09/26 09:28:57;;;;;;;2.47;0.83;;;;;13.00;95155.00;;;;5113136;28;20598;-62
2022/09/26 09:31:26;;;;;;;0.70;0.70;;;;;13.10;95151.00;;;;5113104;28;20714;-62
2022/09/26 09:33:59;;;;;;;0.60;0.60;;;;;13.40;95141.00;;;;5113145;28;20221;-61
2022/09/26 09:36:30;;;;;;;0.60;0.60;;;;;13.40;95157.00;;;;5113214;28;20218;-62
2022/09/26 09:39:05;;;;;;;0.63;0.63;;;;;13.50;95141.00;;;;5113042;28;20229;-62
2022/09/26 09:41:37;;;;;;;0.57;0.57;;;;;13.90;95145.00;;;;5113027;28;20206;-61
2022/09/26 09:44:13;;;;;;;0.57;0.57;;;;;14.00;95148.00;;;;5113143;28;20225;-63
2022/09/26 09:46:43;;;;;;;0.50;0.50;;;;;13.80;95134.00;;;;5113437;28;20170;-62
2022/09/26 09:49:19;;;;;;;0.60;0.60;;;;;13.60;95135.00;;;;5112922;28;20251;-61
2022/09/26 09:52:02;;;;;;;0.70;0.70;;;;;13.90;95127.00;;;;5112953;28;20205;-62
2022/09/26 09:54:42;;;;;;;0.63;0.63;;;;;13.90;95136.00;;;;5112855;28;20209;-62
2022/09/26 09:57:36;;;;;;;0.57;0.57;;;;;13.70;95129.00;;;;5112840;28;20208;-62
2022/09/26 10:00:11;;;;;;;0.50;0.50;;;;;14.00;95117.00;;;;5108595;28;20266;-62
2022/09/26 10:02:46;;;;;;;0.60;0.60;;;;;14.10;95129.00;;;;5112859;28;20228;-62
2022/09/26 10:05:24;;;;;;;0.60;0.60;;;;;14.10;95119.00;;;;5098319;28;20273;-62
2022/09/26 10:07:57;;;;;;;0.60;0.60;;;;;14.40;95120.00;;;;5116337;28;20226;-62
2022/09/26 10:10:34;;;;;;;0.50;0.50;;;;;14.00;95119.00;;;;5116536;28;20194;-62
2022/09/26 10:13:04;;;;;;;0.50;0.50;;;;;13.70;95121.00;;;;5116884;28;20225;-62
2022/09/26 10:15:35;;;;;;;0.40;0.40;;;;;13.60;95116.00;;;;5098221;28;20232;-62
2022/09/26 10:18:07;;;;;;;0.50;0.50;;;;;13.20;95118.00;;;;5116039;28;20812;-62
2022/09/26 10:20:39;;;;;;;0.73;0.73;;;;;13.40;95115.00;;;;5116721;28;20198;-63
2022/09/26 10:23:21;;;;;;;0.60;0.60;;;;;13.20;95121.00;;;;5116193;28;20209;-62
2022/09/26 10:25:49;;;;;;;0.80;0.80;;;;;13.00;95114.00;;;;5116098;28;20687;-62
2022/09/26 10:28:27;;;;;;;0.60;0.60;;;;;13.20;95104.00;;;;5115955;28;20638;-62
2022/09/26 10:31:00;;;;;;;0.50;0.50;;;;;13.50;95094.00;;;;5115887;28;20229;-61
2022/09/26 10:33:32;;;;;;;0.53;0.53;;;;;13.50;95109.00;;;;5115927;28;20328;-62
2022/09/26 10:36:06;;;;;;;0.67;0.67;;;;;13.70;95105.00;;;;5115770;28;20561;-61
2022/09/26 10:40:43;;;;;;;0.50;0.50;;;;;13.80;95099.00;;;;5115789;28;20193;-64
2022/09/26 10:41:24;;;;;;;0.60;0.60;;;;;13.90;95104.00;;;;5115595;28;20282;-63
2022/09/26 10:43:56;;;;;;;0.50;0.50;;;;;13.70;95079.00;;;;5115709;28;20206;-61
2022/09/26 10:46:26;;;;;;;1.07;0.80;;;;;14.00;95076.00;;;;5115781;28;20717;-60
2022/09/26 10:48:56;;;;;;;0.50;0.50;;;;;14.20;95076.00;;;;5097833;28;20338;-59
2022/09/26 10:51:28;;;;;;;0.43;0.43;;;;;14.20;95071.00;;;;5115902;28;20190;-60
2022/09/26 10:54:04;;;;;;;0.50;0.50;;;;;13.80;95108.00;;;;5115598;28;20222;-62
2022/09/26 10:56:36;;;;;;;0.70;0.70;;;;;13.70;95065.00;;;;5115821;28;20190;-60
2022/09/26 10:59:07;;;;;;;1.33;1.23;;;;;13.80;95080.00;;;;5115504;28;20210;-57
2022/09/26 11:01:41;;;;;;;0.50;0.50;;;;;14.00;95076.00;;;;5115528;28;20224;-58
2022/09/26 11:05:55;;;;;;;0.67;0.67;;;;;14.50;95049.00;;;;5115440;28;20578;-60
2022/09/26 11:07:02;;;;;;;0.40;0.40;;;;;14.50;95056.00;;;;5115297;28;20216;-62
2022/09/26 11:09:32;;;;;;;0.40;0.40;;;;;14.70;95078.00;;;;5115250;28;20226;-63
2022/09/26 11:12:19;;;;;;;0.70;0.70;;;;;14.20;95077.00;;;;5115582;28;20200;-62
2022/09/26 11:14:46;;;;;;;0.50;0.50;;;;;14.50;95071.00;;;;5114557;28;20201;-63
2022/09/26 11:17:13;;;;;;;0.50;0.50;;;;;14.10;95079.00;;;;5115105;28;20190;-62
2022/09/26 11:19:48;;;;;;;0.60;0.60;;;;;13.90;95077.00;;;;5115196;28;20288;-62
2022/09/26 11:22:24;;;;;;;0.57;0.57;;;;;13.90;95085.00;;;;5115154;28;20292;-63
2022/09/26 11:25:02;;;;;;;0.50;0.50;;;;;13.60;95075.00;;;;5115204;28;20220;-62
2022/09/26 11:27:37;;;;;;;0.50;0.50;;;;;12.70;95076.00;;;;5115053;28;20225;-62
2022/09/26 11:30:10;;;;;;;0.43;0.43;;;;;13.00;95052.00;;;;5114967;28;20229;-63
2022/09/26 11:32:40;;;;;;;0.70;0.70;;;;;12.90;95056.00;;;;5114974;28;20653;-62
2022/09/26 11:35:14;;;;;;;0.60;0.60;;;;;13.20;95040.00;;;;5114999;28;20189;-62
2022/09/26 11:37:57;;;;;;;0.50;0.50;;;;;13.10;95048.00;;;;5115011;28;20255;-63
2022/09/26 11:40:42;;;;;;;0.50;0.50;;;;;13.00;95031.00;;;;5114855;28;20239;-63
2022/09/26 11:43:24;;;;;;;0.40;0.40;;;;;13.40;95017.00;;;;5114720;28;20193;-61
2022/09/26 11:46:09;;;;;;;0.60;0.60;;;;;14.20;95024.00;;;;5114615;28;20218;-60
2022/09/26 11:49:04;;;;;;;0.43;0.43;;;;;14.40;95017.00;;;;5114706;28;20691;-61
2022/09/26 11:51:45;;;;;;;0.50;0.50;;;;;14.50;95006.00;;;;5114586;28;20220;-61
2022/09/26 11:54:31;;;;;;;1.80;1.70;;;;;14.90;94995.00;;;;5114463;28;20737;-61
2022/09/26 11:57:08;;;;;;;0.40;0.40;;;;;14.80;95026.00;;;;5114442;28;20680;-61
2022/09/26 11:59:53;;;;;;;0.50;0.50;;;;;14.30;94992.00;;;;5096410;28;20536;-61
2022/09/26 12:02:40;;;;;;;0.50;0.50;;;;;14.70;94999.00;;;;5096456;28;20231;-61
2022/09/26 12:05:25;;;;;;;3.03;1.10;;;;;14.30;94997.00;;;;5114872;28;20198;-63
2022/09/26 12:08:03;;;;;;;0.50;0.50;;;;;14.80;94996.00;;;;5114623;28;20289;-63
2022/09/26 12:10:39;;;;;;;0.40;0.40;;;;;14.90;94933.00;;;;5114544;28;20232;-63
2022/09/26 12:13:16;;;;;;;0.50;0.50;;;;;14.30;95009.00;;;;5114383;28;20225;-65
2022/09/26 12:15:54;;;;;;;0.50;0.50;;;;;13.80;95008.00;;;;5114890;28;20190;-63
2022/09/26 12:18:31;;;;;;;0.60;0.60;;;;;13.50;94996.00;;;;5096411;28;20214;-63
2022/09/26 12:21:30;;;;;;;0.50;0.50;;;;;13.60;95009.00;;;;5096373;28;20247;-61
2022/09/26 12:24:07;;;;;;;0.60;0.60;;;;;13.30;94999.00;;;;5114255;28;20643;-61
2022/09/26 12:26:44;;;;;;;0.60;0.60;;;;;13.40;94989.00;;;;5114122;28;20605;-61
2022/09/26 12:29:22;;;;;;;0.60;0.60;;;;;13.30;94986.00;;;;5114345;28;20213;-62
2022/09/26 12:32:04;;;;;;;0.50;0.50;;;;;13.70;94998.00;;;;5114348;28;20213;-63
2022/09/26 12:34:55;;;;;;;0.60;0.60;;;;;13.50;94984.00;;;;5114163;28;20296;-63
2022/09/26 12:37:51;;;;;;;0.40;0.40;;;;;13.10;94983.00;;;;5114181;28;20343;-62
2022/09/26 12:40:32;;;;;;;0.43;0.43;;;;;13.30;94983.00;;;;5106277;28;20252;-63
2022/09/26 12:43:18;;;;;;;0.50;0.50;;;;;13.00;94991.00;;;;5114124;28;20411;-63
2022/09/26 12:46:11;;;;;;;0.50;0.50;;;;;13.30;94983.00;;;;5096007;28;20198;-62
2022/09/26 12:48:55;;;;;;;0.50;0.50;;;;;13.10;94972.00;;;;5096531;28;20229;-62
2022/09/26 12:51:31;;;;;;;0.53;0.53;;;;;13.00;94978.00;;;;5113558;28;20606;-61
2022/09/26 12:54:33;;;;;;;0.60;0.60;;;;;12.80;94995.00;;;;5095226;28;20233;-62
2022/09/26 12:57:08;;;;;;;0.50;0.50;;;;;12.90;94977.00;;;;5113456;28;20281;-61
2022/09/26 12:59:53;;;;;;;0.50;0.50;;;;;12.80;94976.00;;;;5113452;28;20217;-61